sensor_id;sensor_type;location;lat;lon;timestamp;temperature;humidity
15203;DHT22;7702;51.046;5.184;2023-07-16T00:00:14;17.10;99.90
15203;DHT22;7702;51.046;5.184;2023-07-16T00:02:43;17.10;99.90
15203;DHT22;7702;51.046;5.184;2023-07-16T00:05:09;17.10;99.90
15203;DHT22;7702;51.046;5.184;2023-07-16T00:07:35;17.10;99.90
15203;DHT22;7702;51.046;5.184;2023-07-16T00:10:00;17.10;99.90
15203;DHT22;7702;51.046;5.184;2023-07-16T00:12:26;17.00;99.90
15203;DHT22;7702;51.046;5.184;2023-07-16T00:14:53;17.00;99.90
15203;DHT22;7702;51.046;5.184;2023-07-16T00:17:20;17.00;99.90
15203;DHT22;7702;51.046;5.184;2023-07-16T00:19:46;17.00;99.90
15203;DHT22;7702;51.046;5.184;2023-07-16T00:22:12;17.00;99.90
15203;DHT22;7702;51.046;5.184;2023-07-16T00:24:37;17.00;99.90
15203;DHT22;7702;51.046;5.184;2023-07-16T00:27:03;16.90;99.90
15203;DHT22;7702;51.046;5.184;2023-07-16T00:29:29;17.00;99.90
15203;DHT22;7702;51.046;5.184;2023-07-16T00:31:55;16.90;99.90
15203;DHT22;7702;51.046;5.184;2023-07-16T00:34:21;16.90;99.90
15203;DHT22;7702;51.046;5.184;2023-07-16T00:36:46;16.90;99.90
15203;DHT22;7702;51.046;5.184;2023-07-16T00:39:12;16.90;99.90
15203;DHT22;7702;51.046;5.184;2023-07-16T00:41:38;16.80;99.90
15203;DHT22;7702;51.046;5.184;2023-07-16T00:44:05;16.80;99.90
15203;DHT22;7702;51.046;5.184;2023-07-16T00:46:31;16.80;99.90
15203;DHT22;7702;51.046;5.184;2023-07-16T00:48:57;16.80;99.90
15203;DHT22;7702;51.046;5.184;2023-07-16T00:51:24;16.80;99.90
15203;DHT22;7702;51.046;5.184;2023-07-16T00:53:51;16.70;99.90
15203;DHT22;7702;51.046;5.184;2023-07-16T00:56:17;16.80;99.90
15203;DHT22;7702;51.046;5.184;2023-07-16T00:58:43;16.80;99.90
15203;DHT22;7702;51.046;5.184;2023-07-16T01:01:09;16.70;99.90
15203;DHT22;7702;51.046;5.184;2023-07-16T01:03:35;16.70;99.90
15203;DHT22;7702;51.046;5.184;2023-07-16T01:06:25;16.70;99.90
15203;DHT22;7702;51.046;5.184;2023-07-16T01:09:18;16.70;99.90
15203;DHT22;7702;51.046;5.184;2023-07-16T01:11:44;16.70;99.90
15203;DHT22;7702;51.046;5.184;2023-07-16T01:14:10;16.60;99.90
15203;DHT22;7702;51.046;5.184;2023-07-16T01:16:37;16.60;99.90
15203;DHT22;7702;51.046;5.184;2023-07-16T01:19:03;16.50;99.90
15203;DHT22;7702;51.046;5.184;2023-07-16T01:30:02;16.30;99.90
15203;DHT22;7702;51.046;5.184;2023-07-16T01:32:32;16.30;99.90
15203;DHT22;7702;51.046;5.184;2023-07-16T01:34:59;16.30;99.90
15203;DHT22;7702;51.046;5.184;2023-07-16T01:37:25;16.20;99.90
15203;DHT22;7702;51.046;5.184;2023-07-16T01:39:51;16.10;99.90
15203;DHT22;7702;51.046;5.184;2023-07-16T01:42:16;16.20;99.90
15203;DHT22;7702;51.046;5.184;2023-07-16T01:44:42;16.10;99.90
15203;DHT22;7702;51.046;5.184;2023-07-16T01:49:55;16.10;99.90
15203;DHT22;7702;51.046;5.184;2023-07-16T01:52:21;16.10;99.90
15203;DHT22;7702;51.046;5.184;2023-07-16T01:54:47;16.00;99.90
15203;DHT22;7702;51.046;5.184;2023-07-16T01:57:13;16.00;99.90
15203;DHT22;7702;51.046;5.184;2023-07-16T01:59:39;16.00;99.90
15203;DHT22;7702;51.046;5.184;2023-07-16T02:02:05;16.00;99.90
15203;DHT22;7702;51.046;5.184;2023-07-16T02:04:31;15.90;99.90
15203;DHT22;7702;51.046;5.184;2023-07-16T02:06:57;15.90;99.90
15203;DHT22;7702;51.046;5.184;2023-07-16T02:09:22;15.90;99.90
15203;DHT22;7702;51.046;5.184;2023-07-16T02:11:48;15.90;99.90
15203;DHT22;7702;51.046;5.184;2023-07-16T02:14:14;15.90;99.90
15203;DHT22;7702;51.046;5.184;2023-07-16T02:16:41;15.80;99.90
15203;DHT22;7702;51.046;5.184;2023-07-16T02:19:07;15.80;99.90
15203;DHT22;7702;51.046;5.184;2023-07-16T02:21:32;15.80;99.90
15203;DHT22;7702;51.046;5.184;2023-07-16T02:23:58;15.80;99.90
15203;DHT22;7702;51.046;5.184;2023-07-16T02:26:24;15.70;99.90
15203;DHT22;7702;51.046;5.184;2023-07-16T02:28:50;15.70;99.90
15203;DHT22;7702;51.046;5.184;2023-07-16T02:31:16;15.70;99.90
15203;DHT22;7702;51.046;5.184;2023-07-16T02:33:42;15.70;99.90
15203;DHT22;7702;51.046;5.184;2023-07-16T02:36:07;15.60;99.90
15203;DHT22;7702;51.046;5.184;2023-07-16T02:38:33;15.60;99.90
15203;DHT22;7702;51.046;5.184;2023-07-16T02:40:59;15.60;99.90
15203;DHT22;7702;51.046;5.184;2023-07-16T02:43:25;15.60;99.90
15203;DHT22;7702;51.046;5.184;2023-07-16T02:45:51;15.60;99.90
15203;DHT22;7702;51.046;5.184;2023-07-16T02:48:16;15.60;99.90
15203;DHT22;7702;51.046;5.184;2023-07-16T02:50:42;15.60;99.90
15203;DHT22;7702;51.046;5.184;2023-07-16T02:53:08;15.50;99.90
15203;DHT22;7702;51.046;5.184;2023-07-16T02:55:36;15.50;99.90
15203;DHT22;7702;51.046;5.184;2023-07-16T02:58:02;15.50;99.90
15203;DHT22;7702;51.046;5.184;2023-07-16T03:00:31;15.50;99.90
15203;DHT22;7702;51.046;5.184;2023-07-16T03:02:57;15.50;99.90
15203;DHT22;7702;51.046;5.184;2023-07-16T03:05:27;15.40;99.90
15203;DHT22;7702;51.046;5.184;2023-07-16T03:07:53;15.40;99.90
15203;DHT22;7702;51.046;5.184;2023-07-16T03:10:20;15.40;99.90
15203;DHT22;7702;51.046;5.184;2023-07-16T03:12:46;15.40;99.90
15203;DHT22;7702;51.046;5.184;2023-07-16T03:15:11;15.30;99.90
15203;DHT22;7702;51.046;5.184;2023-07-16T03:17:37;15.30;99.90
15203;DHT22;7702;51.046;5.184;2023-07-16T03:20:03;15.30;99.90
15203;DHT22;7702;51.046;5.184;2023-07-16T03:22:30;15.20;99.90
15203;DHT22;7702;51.046;5.184;2023-07-16T03:24:57;15.10;99.90
15203;DHT22;7702;51.046;5.184;2023-07-16T03:27:23;15.10;99.90
15203;DHT22;7702;51.046;5.184;2023-07-16T03:29:48;15.00;99.90
15203;DHT22;7702;51.046;5.184;2023-07-16T03:32:14;14.90;99.90
15203;DHT22;7702;51.046;5.184;2023-07-16T03:34:40;14.80;99.90
15203;DHT22;7702;51.046;5.184;2023-07-16T03:37:05;14.80;99.90
15203;DHT22;7702;51.046;5.184;2023-07-16T03:39:31;14.80;99.90
15203;DHT22;7702;51.046;5.184;2023-07-16T03:41:57;14.70;99.90
15203;DHT22;7702;51.046;5.184;2023-07-16T03:44:22;14.70;99.90
15203;DHT22;7702;51.046;5.184;2023-07-16T03:46:48;14.70;99.90
15203;DHT22;7702;51.046;5.184;2023-07-16T03:49:14;14.80;99.90
15203;DHT22;7702;51.046;5.184;2023-07-16T03:51:39;14.70;99.90
15203;DHT22;7702;51.046;5.184;2023-07-16T03:54:05;14.70;99.90
15203;DHT22;7702;51.046;5.184;2023-07-16T03:56:31;14.60;99.90
15203;DHT22;7702;51.046;5.184;2023-07-16T03:58:56;14.60;99.90
15203;DHT22;7702;51.046;5.184;2023-07-16T04:01:22;14.70;99.90
15203;DHT22;7702;51.046;5.184;2023-07-16T04:03:48;14.70;99.90
15203;DHT22;7702;51.046;5.184;2023-07-16T04:06:14;14.60;99.90
15203;DHT22;7702;51.046;5.184;2023-07-16T04:08:39;14.70;99.90
15203;DHT22;7702;51.046;5.184;2023-07-16T04:11:06;14.70;99.90
15203;DHT22;7702;51.046;5.184;2023-07-16T04:13:32;14.80;99.90
15203;DHT22;7702;51.046;5.184;2023-07-16T04:15:58;14.70;99.90
15203;DHT22;7702;51.046;5.184;2023-07-16T04:18:27;14.70;99.90
15203;DHT22;7702;51.046;5.184;2023-07-16T04:20:53;14.70;99.90
15203;DHT22;7702;51.046;5.184;2023-07-16T04:23:19;14.70;99.90
15203;DHT22;7702;51.046;5.184;2023-07-16T04:25:45;14.70;99.90
15203;DHT22;7702;51.046;5.184;2023-07-16T04:28:11;14.70;99.90
15203;DHT22;7702;51.046;5.184;2023-07-16T04:30:37;14.70;99.90
15203;DHT22;7702;51.046;5.184;2023-07-16T04:33:04;14.70;99.90
15203;DHT22;7702;51.046;5.184;2023-07-16T04:35:31;14.80;99.90
15203;DHT22;7702;51.046;5.184;2023-07-16T04:37:57;14.80;99.90
15203;DHT22;7702;51.046;5.184;2023-07-16T04:40:23;14.90;99.90
15203;DHT22;7702;51.046;5.184;2023-07-16T04:42:49;14.90;99.90
15203;DHT22;7702;51.046;5.184;2023-07-16T04:45:15;15.00;99.90
15203;DHT22;7702;51.046;5.184;2023-07-16T04:47:40;15.10;99.90
15203;DHT22;7702;51.046;5.184;2023-07-16T04:50:06;15.10;99.90
15203;DHT22;7702;51.046;5.184;2023-07-16T04:52:32;15.20;99.90
15203;DHT22;7702;51.046;5.184;2023-07-16T04:54:57;15.20;99.90
15203;DHT22;7702;51.046;5.184;2023-07-16T04:57:23;15.30;99.90
15203;DHT22;7702;51.046;5.184;2023-07-16T04:59:49;15.40;99.90
15203;DHT22;7702;51.046;5.184;2023-07-16T05:02:14;15.40;99.90
15203;DHT22;7702;51.046;5.184;2023-07-16T05:04:42;15.50;99.90
15203;DHT22;7702;51.046;5.184;2023-07-16T05:07:10;15.50;99.90
15203;DHT22;7702;51.046;5.184;2023-07-16T05:09:35;15.50;99.90
15203;DHT22;7702;51.046;5.184;2023-07-16T05:12:01;15.60;99.90
15203;DHT22;7702;51.046;5.184;2023-07-16T05:14:28;15.60;99.90
15203;DHT22;7702;51.046;5.184;2023-07-16T05:16:54;15.60;99.90
15203;DHT22;7702;51.046;5.184;2023-07-16T05:19:20;15.80;99.90
15203;DHT22;7702;51.046;5.184;2023-07-16T05:21:46;15.80;99.90
15203;DHT22;7702;51.046;5.184;2023-07-16T05:24:12;15.80;99.90
15203;DHT22;7702;51.046;5.184;2023-07-16T05:26:38;15.90;99.90
15203;DHT22;7702;51.046;5.184;2023-07-16T05:29:04;16.00;99.90
15203;DHT22;7702;51.046;5.184;2023-07-16T05:31:30;16.00;99.90
15203;DHT22;7702;51.046;5.184;2023-07-16T05:33:55;16.00;99.90
15203;DHT22;7702;51.046;5.184;2023-07-16T05:36:21;16.10;99.90
15203;DHT22;7702;51.046;5.184;2023-07-16T05:38:47;16.10;99.90
15203;DHT22;7702;51.046;5.184;2023-07-16T05:41:13;16.30;99.90
15203;DHT22;7702;51.046;5.184;2023-07-16T05:43:38;16.30;99.90
15203;DHT22;7702;51.046;5.184;2023-07-16T05:46:04;16.40;99.90
15203;DHT22;7702;51.046;5.184;2023-07-16T05:48:31;16.40;99.90
15203;DHT22;7702;51.046;5.184;2023-07-16T05:50:56;16.50;99.90
15203;DHT22;7702;51.046;5.184;2023-07-16T05:53:22;16.70;99.90
15203;DHT22;7702;51.046;5.184;2023-07-16T05:55:48;16.80;99.90
15203;DHT22;7702;51.046;5.184;2023-07-16T05:58:15;16.80;99.90
15203;DHT22;7702;51.046;5.184;2023-07-16T06:00:41;16.80;99.90
15203;DHT22;7702;51.046;5.184;2023-07-16T06:03:07;16.90;99.90
15203;DHT22;7702;51.046;5.184;2023-07-16T06:05:33;16.90;99.90
15203;DHT22;7702;51.046;5.184;2023-07-16T06:08:00;16.90;99.90
15203;DHT22;7702;51.046;5.184;2023-07-16T06:10:26;17.00;99.90
15203;DHT22;7702;51.046;5.184;2023-07-16T06:12:51;17.10;99.90
15203;DHT22;7702;51.046;5.184;2023-07-16T06:15:17;17.10;99.90
15203;DHT22;7702;51.046;5.184;2023-07-16T06:17:43;17.20;99.90
15203;DHT22;7702;51.046;5.184;2023-07-16T06:20:09;17.30;99.90
15203;DHT22;7702;51.046;5.184;2023-07-16T06:22:35;17.40;99.90
15203;DHT22;7702;51.046;5.184;2023-07-16T06:25:00;17.40;99.90
15203;DHT22;7702;51.046;5.184;2023-07-16T06:27:26;17.40;99.90
15203;DHT22;7702;51.046;5.184;2023-07-16T06:29:52;17.50;99.90
15203;DHT22;7702;51.046;5.184;2023-07-16T06:32:18;17.60;99.90
15203;DHT22;7702;51.046;5.184;2023-07-16T06:34:44;17.60;99.90
15203;DHT22;7702;51.046;5.184;2023-07-16T06:37:10;17.60;99.90
15203;DHT22;7702;51.046;5.184;2023-07-16T06:39:35;17.70;99.90
15203;DHT22;7702;51.046;5.184;2023-07-16T06:42:01;17.80;99.90
15203;DHT22;7702;51.046;5.184;2023-07-16T06:44:27;17.80;99.90
15203;DHT22;7702;51.046;5.184;2023-07-16T06:46:53;17.70;99.90
15203;DHT22;7702;51.046;5.184;2023-07-16T06:49:19;17.80;99.90
15203;DHT22;7702;51.046;5.184;2023-07-16T06:51:45;17.90;99.90
15203;DHT22;7702;51.046;5.184;2023-07-16T06:54:10;17.80;99.90
15203;DHT22;7702;51.046;5.184;2023-07-16T06:56:36;17.90;99.90
15203;DHT22;7702;51.046;5.184;2023-07-16T06:59:02;18.00;99.90
15203;DHT22;7702;51.046;5.184;2023-07-16T07:01:27;18.10;99.90
15203;DHT22;7702;51.046;5.184;2023-07-16T07:03:54;18.30;99.90
15203;DHT22;7702;51.046;5.184;2023-07-16T07:06:19;18.40;99.90
15203;DHT22;7702;51.046;5.184;2023-07-16T07:08:46;18.40;99.90
15203;DHT22;7702;51.046;5.184;2023-07-16T07:11:12;18.60;99.90
15203;DHT22;7702;51.046;5.184;2023-07-16T07:13:38;18.50;99.90
15203;DHT22;7702;51.046;5.184;2023-07-16T07:16:04;18.70;99.90
15203;DHT22;7702;51.046;5.184;2023-07-16T07:18:29;18.90;99.90
15203;DHT22;7702;51.046;5.184;2023-07-16T07:20:55;18.80;99.90
15203;DHT22;7702;51.046;5.184;2023-07-16T07:23:21;18.90;99.90
15203;DHT22;7702;51.046;5.184;2023-07-16T07:25:51;19.00;99.90
15203;DHT22;7702;51.046;5.184;2023-07-16T07:28:17;18.90;99.90
15203;DHT22;7702;51.046;5.184;2023-07-16T07:30:43;19.00;99.90
15203;DHT22;7702;51.046;5.184;2023-07-16T07:33:09;19.10;99.90
15203;DHT22;7702;51.046;5.184;2023-07-16T07:35:36;19.00;99.90
15203;DHT22;7702;51.046;5.184;2023-07-16T07:38:02;19.00;99.90
15203;DHT22;7702;51.046;5.184;2023-07-16T07:40:27;19.30;99.90
15203;DHT22;7702;51.046;5.184;2023-07-16T07:42:53;19.20;99.90
15203;DHT22;7702;51.046;5.184;2023-07-16T07:45:19;19.10;99.90
15203;DHT22;7702;51.046;5.184;2023-07-16T07:47:44;19.40;99.90
15203;DHT22;7702;51.046;5.184;2023-07-16T07:50:10;19.50;99.90
15203;DHT22;7702;51.046;5.184;2023-07-16T07:52:37;19.60;99.90
15203;DHT22;7702;51.046;5.184;2023-07-16T07:55:03;20.00;99.90
15203;DHT22;7702;51.046;5.184;2023-07-16T07:57:29;20.30;99.90
15203;DHT22;7702;51.046;5.184;2023-07-16T07:59:55;20.60;99.90
15203;DHT22;7702;51.046;5.184;2023-07-16T08:02:25;20.60;99.90
15203;DHT22;7702;51.046;5.184;2023-07-16T08:04:55;20.70;99.90
15203;DHT22;7702;51.046;5.184;2023-07-16T08:07:21;20.60;99.90
15203;DHT22;7702;51.046;5.184;2023-07-16T08:09:47;20.80;99.90
15203;DHT22;7702;51.046;5.184;2023-07-16T08:12:14;20.90;99.90
15203;DHT22;7702;51.046;5.184;2023-07-16T08:14:40;20.80;99.90
15203;DHT22;7702;51.046;5.184;2023-07-16T08:17:07;20.60;99.90
15203;DHT22;7702;51.046;5.184;2023-07-16T08:19:32;20.60;99.90
15203;DHT22;7702;51.046;5.184;2023-07-16T08:21:58;20.60;99.90
15203;DHT22;7702;51.046;5.184;2023-07-16T08:24:25;20.70;99.90
15203;DHT22;7702;51.046;5.184;2023-07-16T08:26:51;20.60;99.90
15203;DHT22;7702;51.046;5.184;2023-07-16T08:29:17;20.80;99.90
15203;DHT22;7702;51.046;5.184;2023-07-16T08:31:42;20.90;99.90
15203;DHT22;7702;51.046;5.184;2023-07-16T08:34:08;21.10;99.90
15203;DHT22;7702;51.046;5.184;2023-07-16T08:36:36;21.00;99.90
15203;DHT22;7702;51.046;5.184;2023-07-16T08:39:02;21.10;99.90
15203;DHT22;7702;51.046;5.184;2023-07-16T08:41:28;21.40;99.90
15203;DHT22;7702;51.046;5.184;2023-07-16T08:43:54;21.30;99.90
15203;DHT22;7702;51.046;5.184;2023-07-16T08:46:20;21.30;99.90
15203;DHT22;7702;51.046;5.184;2023-07-16T08:48:46;21.30;99.90
15203;DHT22;7702;51.046;5.184;2023-07-16T08:51:15;21.30;99.90
15203;DHT22;7702;51.046;5.184;2023-07-16T08:53:42;21.10;99.90
15203;DHT22;7702;51.046;5.184;2023-07-16T08:56:08;21.00;99.90
15203;DHT22;7702;51.046;5.184;2023-07-16T08:58:34;21.00;99.90
15203;DHT22;7702;51.046;5.184;2023-07-16T09:01:01;21.00;99.90
15203;DHT22;7702;51.046;5.184;2023-07-16T09:03:27;21.00;99.90
15203;DHT22;7702;51.046;5.184;2023-07-16T09:05:54;21.00;99.90
15203;DHT22;7702;51.046;5.184;2023-07-16T09:08:19;20.60;99.90
15203;DHT22;7702;51.046;5.184;2023-07-16T09:10:53;20.70;99.90
15203;DHT22;7702;51.046;5.184;2023-07-16T09:13:19;21.10;99.90
15203;DHT22;7702;51.046;5.184;2023-07-16T09:15:53;21.60;99.90
15203;DHT22;7702;51.046;5.184;2023-07-16T09:18:25;22.00;99.90
15203;DHT22;7702;51.046;5.184;2023-07-16T09:20:58;21.60;99.90
15203;DHT22;7702;51.046;5.184;2023-07-16T09:23:27;21.60;99.90
15203;DHT22;7702;51.046;5.184;2023-07-16T09:25:54;21.90;99.90
15203;DHT22;7702;51.046;5.184;2023-07-16T09:28:20;22.30;99.90
15203;DHT22;7702;51.046;5.184;2023-07-16T09:30:47;22.30;99.90
15203;DHT22;7702;51.046;5.184;2023-07-16T09:33:15;22.30;99.90
15203;DHT22;7702;51.046;5.184;2023-07-16T09:35:41;21.80;99.90
15203;DHT22;7702;51.046;5.184;2023-07-16T09:38:08;21.40;99.90
15203;DHT22;7702;51.046;5.184;2023-07-16T09:40:36;21.50;99.90
15203;DHT22;7702;51.046;5.184;2023-07-16T09:43:02;21.50;99.90
15203;DHT22;7702;51.046;5.184;2023-07-16T09:45:28;21.90;99.90
15203;DHT22;7702;51.046;5.184;2023-07-16T09:47:54;21.80;99.90
15203;DHT22;7702;51.046;5.184;2023-07-16T09:50:26;21.70;99.90
15203;DHT22;7702;51.046;5.184;2023-07-16T09:52:52;21.30;99.90
15203;DHT22;7702;51.046;5.184;2023-07-16T09:55:22;21.30;99.90
15203;DHT22;7702;51.046;5.184;2023-07-16T09:57:49;21.40;99.90
15203;DHT22;7702;51.046;5.184;2023-07-16T10:00:16;21.40;99.90
15203;DHT22;7702;51.046;5.184;2023-07-16T10:02:43;21.60;99.90
15203;DHT22;7702;51.046;5.184;2023-07-16T10:05:14;21.70;99.90
15203;DHT22;7702;51.046;5.184;2023-07-16T10:07:40;21.50;99.90
15203;DHT22;7702;51.046;5.184;2023-07-16T10:10:11;21.30;99.90
15203;DHT22;7702;51.046;5.184;2023-07-16T10:12:37;21.10;99.90
15203;DHT22;7702;51.046;5.184;2023-07-16T10:15:04;21.10;99.90
15203;DHT22;7702;51.046;5.184;2023-07-16T10:17:32;21.10;99.90
15203;DHT22;7702;51.046;5.184;2023-07-16T10:20:08;21.30;99.90
15203;DHT22;7702;51.046;5.184;2023-07-16T10:22:40;22.10;99.90
15203;DHT22;7702;51.046;5.184;2023-07-16T10:25:21;22.50;99.90
15203;DHT22;7702;51.046;5.184;2023-07-16T10:27:48;22.70;99.90
15203;DHT22;7702;51.046;5.184;2023-07-16T10:30:15;22.70;99.90
15203;DHT22;7702;51.046;5.184;2023-07-16T10:32:41;22.30;99.90
15203;DHT22;7702;51.046;5.184;2023-07-16T10:35:08;22.10;99.90
15203;DHT22;7702;51.046;5.184;2023-07-16T10:37:34;22.00;99.90
15203;DHT22;7702;51.046;5.184;2023-07-16T10:40:01;21.90;99.90
15203;DHT22;7702;51.046;5.184;2023-07-16T10:42:29;22.00;99.90
15203;DHT22;7702;51.046;5.184;2023-07-16T10:45:00;21.90;99.90
15203;DHT22;7702;51.046;5.184;2023-07-16T10:47:35;21.90;99.90
15203;DHT22;7702;51.046;5.184;2023-07-16T10:50:04;21.60;99.90
15203;DHT22;7702;51.046;5.184;2023-07-16T10:52:30;21.50;99.90
15203;DHT22;7702;51.046;5.184;2023-07-16T10:54:56;21.60;99.90
15203;DHT22;7702;51.046;5.184;2023-07-16T10:57:27;21.70;99.90
15203;DHT22;7702;51.046;5.184;2023-07-16T10:59:53;21.70;99.90
15203;DHT22;7702;51.046;5.184;2023-07-16T11:02:21;21.70;99.90
15203;DHT22;7702;51.046;5.184;2023-07-16T11:04:47;21.70;99.90
15203;DHT22;7702;51.046;5.184;2023-07-16T11:07:14;22.00;99.90
15203;DHT22;7702;51.046;5.184;2023-07-16T11:09:44;22.10;99.90
15203;DHT22;7702;51.046;5.184;2023-07-16T11:12:12;22.20;99.90
15203;DHT22;7702;51.046;5.184;2023-07-16T11:14:39;22.40;99.90
15203;DHT22;7702;51.046;5.184;2023-07-16T11:17:08;22.30;99.90
15203;DHT22;7702;51.046;5.184;2023-07-16T11:19:35;22.50;99.90
15203;DHT22;7702;51.046;5.184;2023-07-16T11:22:02;22.70;99.90
15203;DHT22;7702;51.046;5.184;2023-07-16T11:24:29;22.70;99.90
15203;DHT22;7702;51.046;5.184;2023-07-16T11:27:01;22.60;99.90
15203;DHT22;7702;51.046;5.184;2023-07-16T11:29:34;22.50;99.90
15203;DHT22;7702;51.046;5.184;2023-07-16T11:31:59;22.40;99.90
15203;DHT22;7702;51.046;5.184;2023-07-16T11:34:25;22.20;99.90
15203;DHT22;7702;51.046;5.184;2023-07-16T11:36:51;22.00;99.90
15203;DHT22;7702;51.046;5.184;2023-07-16T11:39:17;21.80;99.90
15203;DHT22;7702;51.046;5.184;2023-07-16T11:41:49;21.60;99.90
15203;DHT22;7702;51.046;5.184;2023-07-16T11:44:19;21.50;99.90
15203;DHT22;7702;51.046;5.184;2023-07-16T11:46:47;21.70;99.90
15203;DHT22;7702;51.046;5.184;2023-07-16T11:49:13;21.70;99.90
15203;DHT22;7702;51.046;5.184;2023-07-16T11:51:40;21.70;99.90
15203;DHT22;7702;51.046;5.184;2023-07-16T11:54:05;21.80;99.90
15203;DHT22;7702;51.046;5.184;2023-07-16T11:56:31;22.00;99.90
15203;DHT22;7702;51.046;5.184;2023-07-16T11:58:57;22.70;99.90
15203;DHT22;7702;51.046;5.184;2023-07-16T12:01:22;23.40;99.90
15203;DHT22;7702;51.046;5.184;2023-07-16T12:03:49;23.30;99.90
15203;DHT22;7702;51.046;5.184;2023-07-16T12:06:14;23.50;99.90
15203;DHT22;7702;51.046;5.184;2023-07-16T12:08:40;23.80;99.90
15203;DHT22;7702;51.046;5.184;2023-07-16T12:11:05;23.80;99.90
15203;DHT22;7702;51.046;5.184;2023-07-16T12:13:31;23.80;99.90
15203;DHT22;7702;51.046;5.184;2023-07-16T12:15:57;24.10;99.90
15203;DHT22;7702;51.046;5.184;2023-07-16T12:18:22;24.50;99.90
15203;DHT22;7702;51.046;5.184;2023-07-16T12:20:48;24.60;99.90
15203;DHT22;7702;51.046;5.184;2023-07-16T12:23:14;24.60;99.90
15203;DHT22;7702;51.046;5.184;2023-07-16T12:25:39;24.40;99.90
15203;DHT22;7702;51.046;5.184;2023-07-16T12:28:05;24.20;99.90
15203;DHT22;7702;51.046;5.184;2023-07-16T12:30:31;24.60;99.90
15203;DHT22;7702;51.046;5.184;2023-07-16T12:32:57;24.90;99.90
15203;DHT22;7702;51.046;5.184;2023-07-16T12:35:23;24.70;99.90
15203;DHT22;7702;51.046;5.184;2023-07-16T12:37:48;24.40;99.90
15203;DHT22;7702;51.046;5.184;2023-07-16T12:40:14;24.40;99.90
15203;DHT22;7702;51.046;5.184;2023-07-16T12:42:40;24.60;99.90
15203;DHT22;7702;51.046;5.184;2023-07-16T12:45:07;24.70;99.90
15203;DHT22;7702;51.046;5.184;2023-07-16T12:47:33;24.70;99.90
15203;DHT22;7702;51.046;5.184;2023-07-16T12:49:59;24.70;99.90
15203;DHT22;7702;51.046;5.184;2023-07-16T12:52:24;24.80;99.90
15203;DHT22;7702;51.046;5.184;2023-07-16T12:54:50;25.30;99.90
15203;DHT22;7702;51.046;5.184;2023-07-16T12:57:17;25.20;99.90
15203;DHT22;7702;51.046;5.184;2023-07-16T12:59:43;25.00;99.90
15203;DHT22;7702;51.046;5.184;2023-07-16T13:02:08;25.10;99.90
15203;DHT22;7702;51.046;5.184;2023-07-16T13:04:34;25.60;99.90
15203;DHT22;7702;51.046;5.184;2023-07-16T13:07:00;26.00;99.90
15203;DHT22;7702;51.046;5.184;2023-07-16T13:09:25;26.40;99.90
15203;DHT22;7702;51.046;5.184;2023-07-16T13:11:52;26.70;99.90
15203;DHT22;7702;51.046;5.184;2023-07-16T13:14:18;26.40;99.90
15203;DHT22;7702;51.046;5.184;2023-07-16T13:16:43;25.70;99.90
15203;DHT22;7702;51.046;5.184;2023-07-16T13:19:09;25.80;99.90
15203;DHT22;7702;51.046;5.184;2023-07-16T13:21:35;26.00;99.90
15203;DHT22;7702;51.046;5.184;2023-07-16T13:24:01;25.70;99.90
15203;DHT22;7702;51.046;5.184;2023-07-16T13:26:26;25.50;99.90
15203;DHT22;7702;51.046;5.184;2023-07-16T13:28:52;26.00;99.90
15203;DHT22;7702;51.046;5.184;2023-07-16T13:31:18;26.50;99.90
15203;DHT22;7702;51.046;5.184;2023-07-16T13:33:44;26.20;99.90
15203;DHT22;7702;51.046;5.184;2023-07-16T13:36:09;26.00;99.90
15203;DHT22;7702;51.046;5.184;2023-07-16T13:38:35;26.20;99.90
15203;DHT22;7702;51.046;5.184;2023-07-16T13:41:00;26.90;99.90
15203;DHT22;7702;51.046;5.184;2023-07-16T13:43:26;27.10;99.90
15203;DHT22;7702;51.046;5.184;2023-07-16T13:45:52;26.50;99.90
15203;DHT22;7702;51.046;5.184;2023-07-16T13:48:17;26.00;99.90
15203;DHT22;7702;51.046;5.184;2023-07-16T13:50:44;25.60;99.90
15203;DHT22;7702;51.046;5.184;2023-07-16T13:53:10;25.60;99.90
15203;DHT22;7702;51.046;5.184;2023-07-16T13:55:35;25.40;99.90
15203;DHT22;7702;51.046;5.184;2023-07-16T13:58:01;25.10;99.90
15203;DHT22;7702;51.046;5.184;2023-07-16T14:00:27;25.40;99.90
15203;DHT22;7702;51.046;5.184;2023-07-16T14:02:53;25.40;99.90
15203;DHT22;7702;51.046;5.184;2023-07-16T14:05:18;25.00;99.90
15203;DHT22;7702;51.046;5.184;2023-07-16T14:07:45;24.50;99.90
15203;DHT22;7702;51.046;5.184;2023-07-16T14:10:10;24.10;99.90
15203;DHT22;7702;51.046;5.184;2023-07-16T14:12:36;23.90;99.90
15203;DHT22;7702;51.046;5.184;2023-07-16T14:15:02;24.00;99.90
15203;DHT22;7702;51.046;5.184;2023-07-16T14:17:28;24.40;99.90
15203;DHT22;7702;51.046;5.184;2023-07-16T14:19:53;24.60;99.90
15203;DHT22;7702;51.046;5.184;2023-07-16T14:22:19;24.50;99.90
15203;DHT22;7702;51.046;5.184;2023-07-16T14:24:45;25.00;99.90
15203;DHT22;7702;51.046;5.184;2023-07-16T14:27:11;25.30;99.90
15203;DHT22;7702;51.046;5.184;2023-07-16T14:29:39;25.80;99.90
15203;DHT22;7702;51.046;5.184;2023-07-16T14:32:05;25.90;99.90
15203;DHT22;7702;51.046;5.184;2023-07-16T14:34:31;25.70;99.90
15203;DHT22;7702;51.046;5.184;2023-07-16T14:36:56;25.70;99.90
15203;DHT22;7702;51.046;5.184;2023-07-16T14:39:22;25.50;99.90
15203;DHT22;7702;51.046;5.184;2023-07-16T14:41:48;25.40;99.90
15203;DHT22;7702;51.046;5.184;2023-07-16T14:44:14;25.20;99.90
15203;DHT22;7702;51.046;5.184;2023-07-16T14:46:40;25.00;99.90
15203;DHT22;7702;51.046;5.184;2023-07-16T14:49:05;24.70;99.90
15203;DHT22;7702;51.046;5.184;2023-07-16T14:51:31;24.30;99.90
15203;DHT22;7702;51.046;5.184;2023-07-16T14:53:57;24.00;99.90
15203;DHT22;7702;51.046;5.184;2023-07-16T14:56:23;23.80;99.90
15203;DHT22;7702;51.046;5.184;2023-07-16T14:58:48;23.80;99.90
15203;DHT22;7702;51.046;5.184;2023-07-16T15:01:14;23.50;99.90
15203;DHT22;7702;51.046;5.184;2023-07-16T15:03:40;23.20;99.90
15203;DHT22;7702;51.046;5.184;2023-07-16T15:06:07;23.30;99.90
15203;DHT22;7702;51.046;5.184;2023-07-16T15:08:32;23.20;99.90
15203;DHT22;7702;51.046;5.184;2023-07-16T15:10:59;23.20;99.90
15203;DHT22;7702;51.046;5.184;2023-07-16T15:13:25;23.20;99.90
15203;DHT22;7702;51.046;5.184;2023-07-16T15:15:53;23.50;99.90
15203;DHT22;7702;51.046;5.184;2023-07-16T15:18:19;24.10;99.90
15203;DHT22;7702;51.046;5.184;2023-07-16T15:20:46;24.30;99.90
15203;DHT22;7702;51.046;5.184;2023-07-16T15:23:13;24.70;99.90
15203;DHT22;7702;51.046;5.184;2023-07-16T15:25:42;25.20;99.90
15203;DHT22;7702;51.046;5.184;2023-07-16T15:28:09;24.60;99.90
15203;DHT22;7702;51.046;5.184;2023-07-16T15:30:36;25.00;99.90
15203;DHT22;7702;51.046;5.184;2023-07-16T15:33:02;25.40;99.90
15203;DHT22;7702;51.046;5.184;2023-07-16T15:35:27;25.10;99.90
15203;DHT22;7702;51.046;5.184;2023-07-16T15:37:53;24.80;99.90
15203;DHT22;7702;51.046;5.184;2023-07-16T15:40:19;24.70;99.90
15203;DHT22;7702;51.046;5.184;2023-07-16T15:42:45;25.00;99.90
15203;DHT22;7702;51.046;5.184;2023-07-16T15:45:12;25.50;99.90
15203;DHT22;7702;51.046;5.184;2023-07-16T15:47:44;25.20;99.90
15203;DHT22;7702;51.046;5.184;2023-07-16T15:50:11;25.00;99.90